Archival Weather

Snohomish County (Paine Fld)

Everett, Washington (KPAE)

Report from: Saturday, November 18, 2023 10:53 PM PST
Current time: Friday, June 21, 2024 1:26 AM PDT

Current weather – Weather history – Daily summaries
Weather forecast

Present weatherLight rain
Temperature8.3°C (46.9°F)
Wind chill5.2°C (41.4°F)
Dew point6.7°C (44.1°F)
Winds 11 kts (5.7 m/s, 12.7 mph) South-Southeast (160°)
Visibility7 mi. (11.3 km)
Clouds Ceiling: Broken clouds 500 ft. (152 m)
Overcast 2,400 ft. (732 m)
Altimeter29.67 in.Hg (1005 mB)
Precipitiation0.03 in. (1 mm)
Relative humidity90 %
Density altitude-374 ft. (-114 m)
Sea-level pressure100.5 kPa (1005 mB, 29.67 in.Hg)
Remarks Fully automated report
Automated weather observing station with precipitation discriminator
Flight conditions Instrument Meteorological Conditions
Raw dataKPAE 190653Z AUTO 16011KT 7SM -RA BKN005 OVC024 08/07 A2967 RMK AO2 SLP048 P0003 T00830067
An error has occurred. This application may no longer respond until reloaded. Reload 🗙